sensor_id;sensor_type;location;lat;lon;timestamp;P1;durP1;ratioP1;P2;durP2;ratioP2
11203;SDS011;5659;49.408;11.116;2023-05-24T00:00:37;9.10;;;4.50;;
11203;SDS011;5659;49.408;11.116;2023-05-24T00:03:04;7.55;;;4.07;;
11203;SDS011;5659;49.408;11.116;2023-05-24T00:05:31;9.18;;;4.20;;
11203;SDS011;5659;49.408;11.116;2023-05-24T00:07:57;9.95;;;4.40;;
11203;SDS011;5659;49.408;11.116;2023-05-24T00:10:24;9.38;;;4.25;;
11203;SDS011;5659;49.408;11.116;2023-05-24T00:12:50;10.40;;;4.40;;
11203;SDS011;5659;49.408;11.116;2023-05-24T00:15:16;12.50;;;4.72;;
11203;SDS011;5659;49.408;11.116;2023-05-24T00:17:42;9.70;;;4.55;;
11203;SDS011;5659;49.408;11.116;2023-05-24T00:20:08;10.90;;;4.55;;
11203;SDS011;5659;49.408;11.116;2023-05-24T00:22:35;9.25;;;4.40;;
11203;SDS011;5659;49.408;11.116;2023-05-24T00:25:02;12.23;;;4.75;;
11203;SDS011;5659;49.408;11.116;2023-05-24T00:27:29;14.23;;;4.55;;
11203;SDS011;5659;49.408;11.116;2023-05-24T00:29:55;8.10;;;4.55;;
11203;SDS011;5659;49.408;11.116;2023-05-24T00:32:21;13.20;;;4.68;;
11203;SDS011;5659;49.408;11.116;2023-05-24T00:34:47;10.70;;;4.70;;
11203;SDS011;5659;49.408;11.116;2023-05-24T00:37:13;8.48;;;4.55;;
11203;SDS011;5659;49.408;11.116;2023-05-24T00:39:39;9.57;;;4.47;;
11203;SDS011;5659;49.408;11.116;2023-05-24T00:42:05;12.82;;;4.82;;
11203;SDS011;5659;49.408;11.116;2023-05-24T00:44:31;11.93;;;4.70;;
11203;SDS011;5659;49.408;11.116;2023-05-24T00:46:57;14.13;;;4.55;;
11203;SDS011;5659;49.408;11.116;2023-05-24T00:49:23;11.80;;;4.50;;
11203;SDS011;5659;49.408;11.116;2023-05-24T00:51:50;12.30;;;5.10;;
11203;SDS011;5659;49.408;11.116;2023-05-24T00:54:17;13.13;;;4.68;;
11203;SDS011;5659;49.408;11.116;2023-05-24T00:56:44;12.50;;;4.30;;
11203;SDS011;5659;49.408;11.116;2023-05-24T00:59:10;13.45;;;4.57;;
11203;SDS011;5659;49.408;11.116;2023-05-24T01:01:36;15.27;;;5.32;;
11203;SDS011;5659;49.408;11.116;2023-05-24T01:04:02;13.05;;;4.75;;
11203;SDS011;5659;49.408;11.116;2023-05-24T01:06:29;11.18;;;4.32;;
11203;SDS011;5659;49.408;11.116;2023-05-24T01:09:15;12.95;;;5.18;;
11203;SDS011;5659;49.408;11.116;2023-05-24T01:11:58;13.70;;;5.30;;
11203;SDS011;5659;49.408;11.116;2023-05-24T01:14:30;11.90;;;4.82;;
11203;SDS011;5659;49.408;11.116;2023-05-24T01:19:50;10.88;;;4.70;;
11203;SDS011;5659;49.408;11.116;2023-05-24T01:22:23;11.77;;;4.72;;
11203;SDS011;5659;49.408;11.116;2023-05-24T01:25:11;16.90;;;5.45;;
11203;SDS011;5659;49.408;11.116;2023-05-24T01:27:38;11.48;;;5.43;;
11203;SDS011;5659;49.408;11.116;2023-05-24T01:30:05;18.15;;;5.38;;
11203;SDS011;5659;49.408;11.116;2023-05-24T01:32:31;14.43;;;5.18;;
11203;SDS011;5659;49.408;11.116;2023-05-24T01:34:57;22.65;;;5.75;;
11203;SDS011;5659;49.408;11.116;2023-05-24T01:37:23;15.07;;;4.97;;
11203;SDS011;5659;49.408;11.116;2023-05-24T01:39:49;15.68;;;4.72;;
11203;SDS011;5659;49.408;11.116;2023-05-24T01:42:20;14.20;;;4.95;;
11203;SDS011;5659;49.408;11.116;2023-05-24T01:47:37;12.50;;;5.10;;
11203;SDS011;5659;49.408;11.116;2023-05-24T01:50:13;15.17;;;4.20;;
11203;SDS011;5659;49.408;11.116;2023-05-24T01:52:40;18.43;;;4.37;;
11203;SDS011;5659;49.408;11.116;2023-05-24T01:55:09;16.10;;;5.47;;
11203;SDS011;5659;49.408;11.116;2023-05-24T01:57:37;13.17;;;5.00;;
11203;SDS011;5659;49.408;11.116;2023-05-24T02:00:05;12.87;;;4.47;;
11203;SDS011;5659;49.408;11.116;2023-05-24T02:02:32;18.23;;;5.30;;
11203;SDS011;5659;49.408;11.116;2023-05-24T02:04:58;15.75;;;4.88;;
11203;SDS011;5659;49.408;11.116;2023-05-24T02:07:23;11.30;;;4.72;;
11203;SDS011;5659;49.408;11.116;2023-05-24T02:09:50;17.27;;;5.20;;
11203;SDS011;5659;49.408;11.116;2023-05-24T02:12:16;12.67;;;4.73;;
11203;SDS011;5659;49.408;11.116;2023-05-24T02:14:42;13.43;;;5.30;;
11203;SDS011;5659;49.408;11.116;2023-05-24T02:17:08;17.58;;;4.93;;
11203;SDS011;5659;49.408;11.116;2023-05-24T02:19:34;15.00;;;5.10;;
11203;SDS011;5659;49.408;11.116;2023-05-24T02:22:01;17.07;;;5.03;;
11203;SDS011;5659;49.408;11.116;2023-05-24T02:24:27;17.07;;;4.73;;
11203;SDS011;5659;49.408;11.116;2023-05-24T02:26:53;11.83;;;4.60;;
11203;SDS011;5659;49.408;11.116;2023-05-24T02:29:20;16.87;;;5.27;;
11203;SDS011;5659;49.408;11.116;2023-05-24T02:31:46;14.90;;;5.23;;
11203;SDS011;5659;49.408;11.116;2023-05-24T02:34:15;11.40;;;5.03;;
11203;SDS011;5659;49.408;11.116;2023-05-24T02:36:41;13.97;;;4.47;;
11203;SDS011;5659;49.408;11.116;2023-05-24T02:39:09;16.80;;;4.20;;
11203;SDS011;5659;49.408;11.116;2023-05-24T02:41:35;10.93;;;3.80;;
11203;SDS011;5659;49.408;11.116;2023-05-24T02:44:01;17.23;;;5.07;;
11203;SDS011;5659;49.408;11.116;2023-05-24T02:46:27;10.13;;;4.00;;
11203;SDS011;5659;49.408;11.116;2023-05-24T02:48:53;22.00;;;4.80;;
11203;SDS011;5659;49.408;11.116;2023-05-24T02:51:19;13.20;;;4.20;;
11203;SDS011;5659;49.408;11.116;2023-05-24T02:53:45;18.40;;;4.87;;
11203;SDS011;5659;49.408;11.116;2023-05-24T02:56:11;14.10;;;4.27;;
11203;SDS011;5659;49.408;11.116;2023-05-24T02:58:38;15.80;;;4.70;;
11203;SDS011;5659;49.408;11.116;2023-05-24T03:01:05;18.63;;;5.30;;
11203;SDS011;5659;49.408;11.116;2023-05-24T03:03:32;15.17;;;4.43;;
11203;SDS011;5659;49.408;11.116;2023-05-24T03:05:58;16.85;;;4.22;;
11203;SDS011;5659;49.408;11.116;2023-05-24T03:08:24;12.27;;;4.70;;
11203;SDS011;5659;49.408;11.116;2023-05-24T03:10:50;12.50;;;4.82;;
11203;SDS011;5659;49.408;11.116;2023-05-24T03:13:16;14.80;;;4.53;;
11203;SDS011;5659;49.408;11.116;2023-05-24T03:15:42;14.83;;;4.57;;
11203;SDS011;5659;49.408;11.116;2023-05-24T03:18:08;17.57;;;4.40;;
11203;SDS011;5659;49.408;11.116;2023-05-24T03:20:34;15.03;;;4.20;;
11203;SDS011;5659;49.408;11.116;2023-05-24T03:23:00;16.27;;;4.67;;
11203;SDS011;5659;49.408;11.116;2023-05-24T03:25:26;19.37;;;4.73;;
11203;SDS011;5659;49.408;11.116;2023-05-24T03:27:52;19.53;;;4.43;;
11203;SDS011;5659;49.408;11.116;2023-05-24T03:30:18;15.87;;;4.23;;
11203;SDS011;5659;49.408;11.116;2023-05-24T03:32:44;15.90;;;4.95;;
11203;SDS011;5659;49.408;11.116;2023-05-24T03:35:10;13.97;;;3.90;;
11203;SDS011;5659;49.408;11.116;2023-05-24T03:37:36;17.20;;;4.47;;
11203;SDS011;5659;49.408;11.116;2023-05-24T03:40:02;15.17;;;4.77;;
11203;SDS011;5659;49.408;11.116;2023-05-24T03:42:29;21.93;;;4.57;;
11203;SDS011;5659;49.408;11.116;2023-05-24T03:44:55;17.73;;;4.50;;
11203;SDS011;5659;49.408;11.116;2023-05-24T03:47:21;13.63;;;4.17;;
11203;SDS011;5659;49.408;11.116;2023-05-24T03:49:47;13.23;;;4.73;;
11203;SDS011;5659;49.408;11.116;2023-05-24T03:52:13;16.50;;;4.30;;
11203;SDS011;5659;49.408;11.116;2023-05-24T03:54:39;11.30;;;4.47;;
11203;SDS011;5659;49.408;11.116;2023-05-24T03:57:05;14.73;;;4.10;;
11203;SDS011;5659;49.408;11.116;2023-05-24T03:59:31;13.57;;;3.93;;
11203;SDS011;5659;49.408;11.116;2023-05-24T04:01:57;19.37;;;4.77;;
11203;SDS011;5659;49.408;11.116;2023-05-24T04:04:23;13.77;;;4.47;;
11203;SDS011;5659;49.408;11.116;2023-05-24T04:06:49;14.55;;;4.10;;
11203;SDS011;5659;49.408;11.116;2023-05-24T04:09:15;14.40;;;4.07;;
11203;SDS011;5659;49.408;11.116;2023-05-24T04:11:41;13.80;;;4.43;;
11203;SDS011;5659;49.408;11.116;2023-05-24T04:14:07;18.27;;;5.07;;
11203;SDS011;5659;49.408;11.116;2023-05-24T04:16:33;11.02;;;3.88;;
11203;SDS011;5659;49.408;11.116;2023-05-24T04:18:59;12.35;;;3.78;;
11203;SDS011;5659;49.408;11.116;2023-05-24T04:21:28;15.18;;;4.40;;
11203;SDS011;5659;49.408;11.116;2023-05-24T04:23:54;15.80;;;4.60;;
11203;SDS011;5659;49.408;11.116;2023-05-24T04:26:20;12.07;;;3.95;;
11203;SDS011;5659;49.408;11.116;2023-05-24T04:28:46;14.48;;;4.65;;
11203;SDS011;5659;49.408;11.116;2023-05-24T04:31:12;14.38;;;3.95;;
11203;SDS011;5659;49.408;11.116;2023-05-24T04:33:40;13.20;;;4.10;;
11203;SDS011;5659;49.408;11.116;2023-05-24T04:36:06;15.97;;;4.50;;
11203;SDS011;5659;49.408;11.116;2023-05-24T04:38:32;16.73;;;4.57;;
11203;SDS011;5659;49.408;11.116;2023-05-24T04:41:02;10.55;;;4.05;;
11203;SDS011;5659;49.408;11.116;2023-05-24T04:43:29;14.60;;;4.63;;
11203;SDS011;5659;49.408;11.116;2023-05-24T04:45:55;15.97;;;4.63;;
11203;SDS011;5659;49.408;11.116;2023-05-24T04:48:21;16.83;;;4.53;;
11203;SDS011;5659;49.408;11.116;2023-05-24T04:50:51;15.83;;;4.20;;
11203;SDS011;5659;49.408;11.116;2023-05-24T04:53:21;17.63;;;4.55;;
11203;SDS011;5659;49.408;11.116;2023-05-24T04:55:48;15.82;;;4.88;;
11203;SDS011;5659;49.408;11.116;2023-05-24T04:58:14;11.50;;;4.03;;
11203;SDS011;5659;49.408;11.116;2023-05-24T05:00:40;13.60;;;4.10;;
11203;SDS011;5659;49.408;11.116;2023-05-24T05:03:06;12.50;;;3.88;;
11203;SDS011;5659;49.408;11.116;2023-05-24T05:05:32;16.70;;;3.93;;
11203;SDS011;5659;49.408;11.116;2023-05-24T05:07:59;14.80;;;4.30;;
11203;SDS011;5659;49.408;11.116;2023-05-24T05:10:25;17.00;;;4.47;;
11203;SDS011;5659;49.408;11.116;2023-05-24T05:12:51;14.00;;;4.30;;
11203;SDS011;5659;49.408;11.116;2023-05-24T05:15:18;15.80;;;4.10;;
11203;SDS011;5659;49.408;11.116;2023-05-24T05:17:44;15.93;;;4.40;;
11203;SDS011;5659;49.408;11.116;2023-05-24T05:20:10;11.95;;;4.40;;
11203;SDS011;5659;49.408;11.116;2023-05-24T05:22:36;17.27;;;4.60;;
11203;SDS011;5659;49.408;11.116;2023-05-24T05:25:03;12.87;;;4.07;;
11203;SDS011;5659;49.408;11.116;2023-05-24T05:27:29;15.10;;;4.35;;
11203;SDS011;5659;49.408;11.116;2023-05-24T05:29:55;14.87;;;4.60;;
11203;SDS011;5659;49.408;11.116;2023-05-24T05:32:21;13.70;;;4.05;;
11203;SDS011;5659;49.408;11.116;2023-05-24T05:34:46;11.75;;;4.18;;
11203;SDS011;5659;49.408;11.116;2023-05-24T05:37:12;14.38;;;4.50;;
11203;SDS011;5659;49.408;11.116;2023-05-24T05:39:38;17.48;;;4.40;;
11203;SDS011;5659;49.408;11.116;2023-05-24T05:42:05;8.13;;;3.45;;
11203;SDS011;5659;49.408;11.116;2023-05-24T05:44:31;17.33;;;4.30;;
11203;SDS011;5659;49.408;11.116;2023-05-24T05:46:57;9.85;;;3.80;;
11203;SDS011;5659;49.408;11.116;2023-05-24T05:49:23;20.27;;;4.68;;
11203;SDS011;5659;49.408;11.116;2023-05-24T05:51:49;13.18;;;3.90;;
11203;SDS011;5659;49.408;11.116;2023-05-24T05:54:16;15.63;;;4.75;;
11203;SDS011;5659;49.408;11.116;2023-05-24T05:56:43;11.07;;;4.30;;
11203;SDS011;5659;49.408;11.116;2023-05-24T05:59:11;15.93;;;4.25;;
11203;SDS011;5659;49.408;11.116;2023-05-24T06:01:38;14.57;;;4.35;;
11203;SDS011;5659;49.408;11.116;2023-05-24T06:04:05;17.08;;;4.47;;
11203;SDS011;5659;49.408;11.116;2023-05-24T06:06:31;13.02;;;4.00;;
11203;SDS011;5659;49.408;11.116;2023-05-24T06:08:57;25.67;;;5.03;;
11203;SDS011;5659;49.408;11.116;2023-05-24T06:11:23;16.58;;;4.50;;
11203;SDS011;5659;49.408;11.116;2023-05-24T06:13:50;14.82;;;4.28;;
11203;SDS011;5659;49.408;11.116;2023-05-24T06:16:16;15.60;;;4.22;;
11203;SDS011;5659;49.408;11.116;2023-05-24T06:18:44;12.18;;;4.20;;
11203;SDS011;5659;49.408;11.116;2023-05-24T06:21:11;12.60;;;4.45;;
11203;SDS011;5659;49.408;11.116;2023-05-24T06:23:37;17.98;;;3.97;;
11203;SDS011;5659;49.408;11.116;2023-05-24T06:26:04;14.13;;;4.20;;
11203;SDS011;5659;49.408;11.116;2023-05-24T06:28:30;13.25;;;4.15;;
11203;SDS011;5659;49.408;11.116;2023-05-24T06:30:56;17.27;;;4.20;;
11203;SDS011;5659;49.408;11.116;2023-05-24T06:33:22;12.60;;;3.55;;
11203;SDS011;5659;49.408;11.116;2023-05-24T06:35:48;14.07;;;4.28;;
11203;SDS011;5659;49.408;11.116;2023-05-24T06:38:14;10.48;;;3.83;;
11203;SDS011;5659;49.408;11.116;2023-05-24T06:40:40;17.48;;;4.30;;
11203;SDS011;5659;49.408;11.116;2023-05-24T06:43:06;17.58;;;4.60;;
11203;SDS011;5659;49.408;11.116;2023-05-24T06:45:32;12.27;;;3.58;;
11203;SDS011;5659;49.408;11.116;2023-05-24T06:47:57;19.50;;;4.55;;
11203;SDS011;5659;49.408;11.116;2023-05-24T06:50:23;15.07;;;4.07;;
11203;SDS011;5659;49.408;11.116;2023-05-24T06:52:49;12.90;;;4.53;;
11203;SDS011;5659;49.408;11.116;2023-05-24T06:55:15;22.83;;;4.47;;
11203;SDS011;5659;49.408;11.116;2023-05-24T06:57:42;14.35;;;4.25;;
11203;SDS011;5659;49.408;11.116;2023-05-24T07:00:08;21.65;;;4.30;;
11203;SDS011;5659;49.408;11.116;2023-05-24T07:02:36;17.90;;;3.88;;
11203;SDS011;5659;49.408;11.116;2023-05-24T07:05:02;12.77;;;4.07;;
11203;SDS011;5659;49.408;11.116;2023-05-24T07:07:29;18.40;;;4.03;;
11203;SDS011;5659;49.408;11.116;2023-05-24T07:09:55;17.45;;;4.55;;
11203;SDS011;5659;49.408;11.116;2023-05-24T07:12:21;14.45;;;3.90;;
11203;SDS011;5659;49.408;11.116;2023-05-24T07:14:47;12.30;;;3.30;;
11203;SDS011;5659;49.408;11.116;2023-05-24T07:17:13;19.02;;;4.85;;
11203;SDS011;5659;49.408;11.116;2023-05-24T07:19:39;9.68;;;3.72;;
11203;SDS011;5659;49.408;11.116;2023-05-24T07:22:06;11.07;;;3.85;;
11203;SDS011;5659;49.408;11.116;2023-05-24T07:24:32;12.32;;;3.50;;
11203;SDS011;5659;49.408;11.116;2023-05-24T07:26:58;15.73;;;3.85;;
11203;SDS011;5659;49.408;11.116;2023-05-24T07:29:24;11.85;;;3.90;;
11203;SDS011;5659;49.408;11.116;2023-05-24T07:31:50;14.40;;;4.38;;
11203;SDS011;5659;49.408;11.116;2023-05-24T07:34:17;16.60;;;4.00;;
11203;SDS011;5659;49.408;11.116;2023-05-24T07:36:45;13.05;;;3.83;;
11203;SDS011;5659;49.408;11.116;2023-05-24T07:39:12;14.30;;;4.43;;
11203;SDS011;5659;49.408;11.116;2023-05-24T07:41:39;12.45;;;4.00;;
11203;SDS011;5659;49.408;11.116;2023-05-24T07:44:06;14.57;;;4.47;;
11203;SDS011;5659;49.408;11.116;2023-05-24T07:46:32;14.98;;;3.97;;
11203;SDS011;5659;49.408;11.116;2023-05-24T07:48:59;12.52;;;4.15;;
11203;SDS011;5659;49.408;11.116;2023-05-24T07:51:25;17.85;;;3.67;;
11203;SDS011;5659;49.408;11.116;2023-05-24T07:53:51;13.55;;;3.70;;
11203;SDS011;5659;49.408;11.116;2023-05-24T07:56:17;17.77;;;4.00;;
11203;SDS011;5659;49.408;11.116;2023-05-24T07:58:43;16.15;;;3.58;;
11203;SDS011;5659;49.408;11.116;2023-05-24T08:01:10;12.40;;;4.28;;
11203;SDS011;5659;49.408;11.116;2023-05-24T08:03:37;15.85;;;3.58;;
11203;SDS011;5659;49.408;11.116;2023-05-24T08:06:03;17.60;;;4.28;;
11203;SDS011;5659;49.408;11.116;2023-05-24T08:08:29;17.75;;;3.60;;
11203;SDS011;5659;49.408;11.116;2023-05-24T08:10:55;13.65;;;3.78;;
11203;SDS011;5659;49.408;11.116;2023-05-24T08:13:21;13.98;;;3.90;;
11203;SDS011;5659;49.408;11.116;2023-05-24T08:15:48;14.05;;;3.90;;
11203;SDS011;5659;49.408;11.116;2023-05-24T08:18:14;12.98;;;3.60;;
11203;SDS011;5659;49.408;11.116;2023-05-24T08:20:40;17.40;;;4.40;;
11203;SDS011;5659;49.408;11.116;2023-05-24T08:23:06;18.55;;;4.07;;
11203;SDS011;5659;49.408;11.116;2023-05-24T08:25:32;11.27;;;3.63;;
11203;SDS011;5659;49.408;11.116;2023-05-24T08:27:58;13.93;;;4.03;;
11203;SDS011;5659;49.408;11.116;2023-05-24T08:30:24;10.80;;;3.78;;
11203;SDS011;5659;49.408;11.116;2023-05-24T08:32:50;19.83;;;4.25;;
11203;SDS011;5659;49.408;11.116;2023-05-24T08:35:16;12.25;;;3.97;;
11203;SDS011;5659;49.408;11.116;2023-05-24T08:37:42;10.75;;;3.67;;
11203;SDS011;5659;49.408;11.116;2023-05-24T08:40:08;13.35;;;3.47;;
11203;SDS011;5659;49.408;11.116;2023-05-24T08:42:35;14.45;;;3.85;;
11203;SDS011;5659;49.408;11.116;2023-05-24T08:45:03;11.55;;;3.83;;
11203;SDS011;5659;49.408;11.116;2023-05-24T08:47:29;20.55;;;4.38;;
11203;SDS011;5659;49.408;11.116;2023-05-24T08:49:55;15.20;;;4.22;;
11203;SDS011;5659;49.408;11.116;2023-05-24T08:52:22;18.00;;;3.92;;
11203;SDS011;5659;49.408;11.116;2023-05-24T08:54:48;15.70;;;4.32;;
11203;SDS011;5659;49.408;11.116;2023-05-24T08:57:14;14.60;;;4.25;;
11203;SDS011;5659;49.408;11.116;2023-05-24T08:59:41;14.60;;;4.15;;
11203;SDS011;5659;49.408;11.116;2023-05-24T09:02:08;12.25;;;3.72;;
11203;SDS011;5659;49.408;11.116;2023-05-24T09:04:36;13.02;;;3.67;;
11203;SDS011;5659;49.408;11.116;2023-05-24T09:07:04;17.40;;;3.58;;
11203;SDS011;5659;49.408;11.116;2023-05-24T09:09:30;13.73;;;4.63;;
11203;SDS011;5659;49.408;11.116;2023-05-24T09:11:59;17.10;;;4.68;;
11203;SDS011;5659;49.408;11.116;2023-05-24T09:14:26;10.93;;;3.28;;
11203;SDS011;5659;49.408;11.116;2023-05-24T09:16:52;16.23;;;4.53;;
11203;SDS011;5659;49.408;11.116;2023-05-24T09:19:18;17.45;;;4.15;;
11203;SDS011;5659;49.408;11.116;2023-05-24T09:21:44;10.18;;;3.63;;
11203;SDS011;5659;49.408;11.116;2023-05-24T09:24:11;12.40;;;3.97;;
11203;SDS011;5659;49.408;11.116;2023-05-24T09:26:37;12.45;;;3.83;;
11203;SDS011;5659;49.408;11.116;2023-05-24T09:29:06;19.08;;;4.15;;
11203;SDS011;5659;49.408;11.116;2023-05-24T09:31:33;16.02;;;4.15;;
11203;SDS011;5659;49.408;11.116;2023-05-24T09:33:59;17.23;;;4.68;;
11203;SDS011;5659;49.408;11.116;2023-05-24T09:36:26;17.60;;;4.43;;
11203;SDS011;5659;49.408;11.116;2023-05-24T09:39:17;12.98;;;3.92;;
11203;SDS011;5659;49.408;11.116;2023-05-24T09:41:42;14.95;;;4.07;;
11203;SDS011;5659;49.408;11.116;2023-05-24T09:44:11;15.25;;;4.22;;
11203;SDS011;5659;49.408;11.116;2023-05-24T09:46:37;18.67;;;4.78;;
11203;SDS011;5659;49.408;11.116;2023-05-24T09:49:03;15.15;;;4.65;;
11203;SDS011;5659;49.408;11.116;2023-05-24T09:51:35;16.08;;;3.47;;
11203;SDS011;5659;49.408;11.116;2023-05-24T09:54:01;15.20;;;3.72;;
11203;SDS011;5659;49.408;11.116;2023-05-24T09:56:28;10.02;;;3.50;;
11203;SDS011;5659;49.408;11.116;2023-05-24T09:58:54;17.20;;;4.35;;
11203;SDS011;5659;49.408;11.116;2023-05-24T10:01:21;12.57;;;3.78;;
11203;SDS011;5659;49.408;11.116;2023-05-24T10:03:52;13.38;;;4.03;;
11203;SDS011;5659;49.408;11.116;2023-05-24T10:06:18;12.70;;;4.35;;
11203;SDS011;5659;49.408;11.116;2023-05-24T10:08:45;13.93;;;4.35;;
11203;SDS011;5659;49.408;11.116;2023-05-24T10:11:15;13.13;;;4.28;;
11203;SDS011;5659;49.408;11.116;2023-05-24T10:13:41;18.33;;;4.53;;
11203;SDS011;5659;49.408;11.116;2023-05-24T10:16:07;11.40;;;3.65;;
11203;SDS011;5659;49.408;11.116;2023-05-24T10:18:33;14.18;;;4.38;;
11203;SDS011;5659;49.408;11.116;2023-05-24T10:21:00;10.07;;;3.90;;
11203;SDS011;5659;49.408;11.116;2023-05-24T10:23:30;12.73;;;4.32;;
11203;SDS011;5659;49.408;11.116;2023-05-24T10:26:06;9.25;;;3.60;;
11203;SDS011;5659;49.408;11.116;2023-05-24T10:28:40;12.07;;;3.88;;
11203;SDS011;5659;49.408;11.116;2023-05-24T10:31:18;10.77;;;3.92;;
11203;SDS011;5659;49.408;11.116;2023-05-24T10:33:46;11.90;;;3.80;;
11203;SDS011;5659;49.408;11.116;2023-05-24T10:36:15;14.68;;;4.00;;
11203;SDS011;5659;49.408;11.116;2023-05-24T10:38:44;9.15;;;3.42;;
11203;SDS011;5659;49.408;11.116;2023-05-24T10:41:10;16.05;;;3.70;;
11203;SDS011;5659;49.408;11.116;2023-05-24T10:43:39;11.05;;;3.35;;
11203;SDS011;5659;49.408;11.116;2023-05-24T10:46:09;20.80;;;4.13;;
11203;SDS011;5659;49.408;11.116;2023-05-24T10:48:36;16.30;;;4.32;;
11203;SDS011;5659;49.408;11.116;2023-05-24T10:53:48;16.10;;;4.20;;
11203;SDS011;5659;49.408;11.116;2023-05-24T10:56:17;10.50;;;3.92;;
11203;SDS011;5659;49.408;11.116;2023-05-24T11:01:28;12.02;;;3.85;;
11203;SDS011;5659;49.408;11.116;2023-05-24T11:04:14;10.10;;;3.88;;
11203;SDS011;5659;49.408;11.116;2023-05-24T11:06:47;12.55;;;3.60;;
11203;SDS011;5659;49.408;11.116;2023-05-24T11:09:17;13.35;;;3.47;;
11203;SDS011;5659;49.408;11.116;2023-05-24T11:11:45;19.63;;;4.50;;
11203;SDS011;5659;49.408;11.116;2023-05-24T11:14:11;12.80;;;3.63;;
11203;SDS011;5659;49.408;11.116;2023-05-24T11:16:37;17.08;;;3.55;;
11203;SDS011;5659;49.408;11.116;2023-05-24T11:19:17;13.32;;;3.72;;
11203;SDS011;5659;49.408;11.116;2023-05-24T11:21:44;10.15;;;3.72;;
11203;SDS011;5659;49.408;11.116;2023-05-24T11:24:11;10.38;;;3.40;;
11203;SDS011;5659;49.408;11.116;2023-05-24T11:26:37;15.45;;;3.47;;
11203;SDS011;5659;49.408;11.116;2023-05-24T11:29:03;14.15;;;4.13;;
11203;SDS011;5659;49.408;11.116;2023-05-24T11:31:30;8.70;;;3.33;;
11203;SDS011;5659;49.408;11.116;2023-05-24T11:33:56;12.30;;;3.70;;
11203;SDS011;5659;49.408;11.116;2023-05-24T11:36:22;15.18;;;3.70;;
11203;SDS011;5659;49.408;11.116;2023-05-24T11:38:49;14.13;;;3.40;;
11203;SDS011;5659;49.408;11.116;2023-05-24T11:41:18;14.43;;;3.63;;
11203;SDS011;5659;49.408;11.116;2023-05-24T11:43:44;11.73;;;3.20;;
11203;SDS011;5659;49.408;11.116;2023-05-24T11:46:10;10.15;;;3.40;;
11203;SDS011;5659;49.408;11.116;2023-05-24T11:48:37;10.27;;;3.35;;
11203;SDS011;5659;49.408;11.116;2023-05-24T11:51:03;9.50;;;3.38;;
11203;SDS011;5659;49.408;11.116;2023-05-24T11:53:30;10.43;;;3.08;;
11203;SDS011;5659;49.408;11.116;2023-05-24T11:55:56;9.30;;;2.95;;
11203;SDS011;5659;49.408;11.116;2023-05-24T11:58:23;9.30;;;3.42;;
11203;SDS011;5659;49.408;11.116;2023-05-24T12:00:50;7.03;;;2.97;;
11203;SDS011;5659;49.408;11.116;2023-05-24T12:03:16;19.90;;;3.65;;
11203;SDS011;5659;49.408;11.116;2023-05-24T12:05:42;13.25;;;3.75;;
11203;SDS011;5659;49.408;11.116;2023-05-24T12:08:09;14.30;;;3.67;;
11203;SDS011;5659;49.408;11.116;2023-05-24T12:10:37;11.02;;;3.45;;
11203;SDS011;5659;49.408;11.116;2023-05-24T12:13:03;21.10;;;3.42;;
11203;SDS011;5659;49.408;11.116;2023-05-24T12:15:30;19.15;;;4.03;;
11203;SDS011;5659;49.408;11.116;2023-05-24T12:17:59;7.15;;;3.08;;
11203;SDS011;5659;49.408;11.116;2023-05-24T12:20:28;7.20;;;3.38;;
11203;SDS011;5659;49.408;11.116;2023-05-24T12:22:54;7.97;;;3.10;;
11203;SDS011;5659;49.408;11.116;2023-05-24T12:25:21;5.90;;;2.85;;
11203;SDS011;5659;49.408;11.116;2023-05-24T12:27:53;14.85;;;3.70;;
11203;SDS011;5659;49.408;11.116;2023-05-24T12:30:22;10.27;;;3.13;;
11203;SDS011;5659;49.408;11.116;2023-05-24T12:32:49;44.50;;;4.75;;
11203;SDS011;5659;49.408;11.116;2023-05-24T12:35:21;10.90;;;3.40;;
11203;SDS011;5659;49.408;11.116;2023-05-24T12:37:47;8.52;;;3.30;;
11203;SDS011;5659;49.408;11.116;2023-05-24T12:40:15;7.15;;;3.30;;
11203;SDS011;5659;49.408;11.116;2023-05-24T12:42:44;13.48;;;3.15;;
11203;SDS011;5659;49.408;11.116;2023-05-24T12:45:10;8.05;;;2.97;;
11203;SDS011;5659;49.408;11.116;2023-05-24T12:47:36;10.50;;;2.80;;
11203;SDS011;5659;49.408;11.116;2023-05-24T12:50:02;7.57;;;2.90;;
11203;SDS011;5659;49.408;11.116;2023-05-24T12:52:28;11.60;;;3.30;;
11203;SDS011;5659;49.408;11.116;2023-05-24T12:54:54;10.68;;;2.80;;
11203;SDS011;5659;49.408;11.116;2023-05-24T12:57:23;10.70;;;3.20;;
11203;SDS011;5659;49.408;11.116;2023-05-24T12:59:49;10.23;;;3.03;;
11203;SDS011;5659;49.408;11.116;2023-05-24T13:02:15;10.40;;;3.33;;
11203;SDS011;5659;49.408;11.116;2023-05-24T13:04:41;9.52;;;3.20;;
11203;SDS011;5659;49.408;11.116;2023-05-24T13:07:07;8.80;;;3.15;;
11203;SDS011;5659;49.408;11.116;2023-05-24T13:09:33;11.40;;;2.80;;
11203;SDS011;5659;49.408;11.116;2023-05-24T13:11:59;6.55;;;2.65;;
11203;SDS011;5659;49.408;11.116;2023-05-24T13:14:25;8.30;;;3.42;;
11203;SDS011;5659;49.408;11.116;2023-05-24T13:16:51;6.63;;;3.00;;
11203;SDS011;5659;49.408;11.116;2023-05-24T13:19:17;13.50;;;3.30;;
11203;SDS011;5659;49.408;11.116;2023-05-24T13:21:43;6.45;;;2.88;;
11203;SDS011;5659;49.408;11.116;2023-05-24T13:24:10;9.05;;;3.30;;
11203;SDS011;5659;49.408;11.116;2023-05-24T13:26:37;10.32;;;2.85;;
11203;SDS011;5659;49.408;11.116;2023-05-24T13:29:03;10.27;;;3.00;;
11203;SDS011;5659;49.408;11.116;2023-05-24T13:31:29;13.88;;;3.08;;
11203;SDS011;5659;49.408;11.116;2023-05-24T13:33:55;8.32;;;2.65;;
11203;SDS011;5659;49.408;11.116;2023-05-24T13:36:21;7.03;;;2.70;;
11203;SDS011;5659;49.408;11.116;2023-05-24T13:38:47;8.50;;;2.90;;
11203;SDS011;5659;49.408;11.116;2023-05-24T13:41:13;6.90;;;3.00;;
11203;SDS011;5659;49.408;11.116;2023-05-24T13:43:39;12.18;;;2.97;;
11203;SDS011;5659;49.408;11.116;2023-05-24T13:46:05;6.07;;;3.00;;
11203;SDS011;5659;49.408;11.116;2023-05-24T13:48:31;7.15;;;3.03;;
11203;SDS011;5659;49.408;11.116;2023-05-24T13:50:57;10.70;;;3.10;;
11203;SDS011;5659;49.408;11.116;2023-05-24T13:53:23;7.65;;;3.00;;
11203;SDS011;5659;49.408;11.116;2023-05-24T13:55:50;10.68;;;3.05;;
11203;SDS011;5659;49.408;11.116;2023-05-24T13:58:16;11.45;;;3.13;;
11203;SDS011;5659;49.408;11.116;2023-05-24T14:00:42;4.90;;;3.15;;
11203;SDS011;5659;49.408;11.116;2023-05-24T14:03:08;8.50;;;3.05;;
11203;SDS011;5659;49.408;11.116;2023-05-24T14:05:36;7.97;;;2.78;;
11203;SDS011;5659;49.408;11.116;2023-05-24T14:08:03;8.32;;;3.42;;
11203;SDS011;5659;49.408;11.116;2023-05-24T14:10:31;8.60;;;3.17;;
11203;SDS011;5659;49.408;11.116;2023-05-24T14:12:57;7.90;;;3.25;;
11203;SDS011;5659;49.408;11.116;2023-05-24T14:15:23;7.13;;;3.40;;
11203;SDS011;5659;49.408;11.116;2023-05-24T14:17:50;7.32;;;3.45;;
11203;SDS011;5659;49.408;11.116;2023-05-24T14:20:16;7.80;;;3.50;;
11203;SDS011;5659;49.408;11.116;2023-05-24T14:22:42;8.48;;;3.20;;
11203;SDS011;5659;49.408;11.116;2023-05-24T14:25:08;7.03;;;3.22;;
11203;SDS011;5659;49.408;11.116;2023-05-24T14:27:34;8.13;;;3.15;;
11203;SDS011;5659;49.408;11.116;2023-05-24T14:30:00;7.72;;;3.30;;
11203;SDS011;5659;49.408;11.116;2023-05-24T14:32:26;4.88;;;2.95;;
11203;SDS011;5659;49.408;11.116;2023-05-24T14:34:52;9.45;;;3.75;;
11203;SDS011;5659;49.408;11.116;2023-05-24T14:37:18;7.63;;;3.35;;
11203;SDS011;5659;49.408;11.116;2023-05-24T14:39:44;6.15;;;3.08;;
11203;SDS011;5659;49.408;11.116;2023-05-24T14:42:10;5.32;;;2.80;;
11203;SDS011;5659;49.408;11.116;2023-05-24T14:44:36;5.97;;;2.88;;